KIJX

Jacksonville Municipal Airport

Jacksonville, Illinois, USA
METAR KIJX 230035Z AUTO 30003KT 10SM CLR 11/06 A3013 RMK AO2 T01070062
Observed Flight Rules
Oct-23 @ 00:35 UTC (27 minutes ago) Visual Flight Rules
Wind Visibility Clouds
300° at 3 knots 10 miles
  • Clear skies
Temperatures Readings
Current 11°C / 52°F
Dewpoint 6°C / 43°F
Humidity 72%
Altimeter 30.13" Hg
Pressure 1020 hPa
Elevation 190
METAR KIJX 230035Z AUTO 30003KT 10SM CLR 11/06 A3013 RMK AO2 T01070062
Observed Flight Rules
Oct-23 @ 00:35 UTC
(27 minutes ago)
VFR
Wind Visibility
300° at 3 knots 10 miles
Clouds
  • Clear skies
Temperature Dewpoint
11°C / 52°F 6°C / 43°F
Humidity Altimeter Pressure
72% 30.13" Hg 1020 hPa